Time;durP1;ratioP1;P1;durP2;ratioP2;P2;SDS_P1;SDS_P2;PMS_P1;PMS_P2;Temp;Humidity;BMP_temperature;BMP_pressure;BME280_temperature;BME280_humidity;BME280_pressure;Samples;Min_cycle;Max_cycle;Signal;HPM_P1;HPM_P2
2022/06/08 00:01:40;;;;;;;3.73;3.30;;;16.70;99.90;;;;;;4997861;28;20530;-75
2022/06/08 00:04:09;;;;;;;8.00;3.77;;;16.70;99.90;;;;;;4967519;28;20468;-75
2022/06/08 00:06:34;;;;;;;5.23;3.33;;;16.70;99.90;;;;;;4970334;28;20459;-76
2022/06/08 00:09:00;;;;;;;5.23;3.37;;;16.60;99.90;;;;;;4966808;28;20506;-76
2022/06/08 00:11:26;;;;;;;4.47;3.53;;;16.60;99.90;;;;;;4970601;28;20171;-76
2022/06/08 00:13:52;;;;;;;7.60;3.90;;;16.60;99.90;;;;;;4970947;28;20631;-75
2022/06/08 00:16:18;;;;;;;12.70;4.57;;;16.50;99.90;;;;;;4968463;28;20298;-76
2022/06/08 00:18:44;;;;;;;4.73;3.20;;;16.40;99.90;;;;;;4989681;28;20620;-75
2022/06/08 00:21:11;;;;;;;5.53;3.00;;;16.40;99.90;;;;;;4987833;28;20206;-75
2022/06/08 00:23:37;;;;;;;8.23;4.03;;;16.30;99.90;;;;;;4989691;28;20406;-75
2022/06/08 00:26:02;;;;;;;10.53;4.33;;;16.40;99.90;;;;;;4990191;28;20484;-76
2022/06/08 00:28:28;;;;;;;5.90;3.10;;;16.30;99.90;;;;;;4989933;28;20210;-76
2022/06/08 00:30:54;;;;;;;3.93;3.30;;;16.30;99.90;;;;;;4990050;28;20178;-75
2022/06/08 00:33:19;;;;;;;5.33;3.33;;;16.30;99.90;;;;;;4989099;28;20190;-77
2022/06/08 00:35:45;;;;;;;5.60;3.13;;;16.20;99.90;;;;;;4989887;28;20682;-76
2022/06/08 00:38:10;;;;;;;4.60;3.00;;;16.20;99.90;;;;;;4988159;28;20179;-75
2022/06/08 00:41:09;;;;;;;3.80;3.03;;;16.20;99.90;;;;;;4989507;28;20179;-74
2022/06/08 00:43:36;;;;;;;4.83;3.23;;;16.10;99.90;;;;;;4986427;28;20262;-73
2022/06/08 00:46:03;;;;;;;3.90;3.27;;;16.10;99.90;;;;;;4962314;28;20431;-73
2022/06/08 00:48:33;;;;;;;3.13;2.83;;;16.10;99.90;;;;;;4969561;28;20486;-73
2022/06/08 00:50:59;;;;;;;4.23;3.43;;;16.00;99.90;;;;;;4968305;28;20518;-73
2022/06/08 00:53:32;;;;;;;5.33;3.20;;;16.00;99.90;;;;;;4964418;28;20851;-73
2022/06/08 00:56:01;;;;;;;4.73;2.83;;;16.00;99.90;;;;;;4968561;28;20227;-73
2022/06/08 00:58:29;;;;;;;4.60;3.17;;;15.90;99.90;;;;;;4968879;28;20481;-73
2022/06/08 01:00:58;;;;;;;4.40;2.80;;;15.90;99.90;;;;;;4970015;28;20423;-72
2022/06/08 01:03:26;;;;;;;4.10;3.43;;;15.90;99.90;;;;;;4969150;28;20434;-73
2022/06/08 01:06:03;;;;;;;5.83;3.60;;;15.90;99.90;;;;;;4970066;28;20450;-72
2022/06/08 01:08:46;;;;;;;3.63;3.10;;;15.80;99.90;;;;;;4969768;28;20807;-73
2022/06/08 01:11:18;;;;;;;5.20;3.07;;;15.80;99.90;;;;;;4969514;28;20964;-73
2022/06/08 01:13:44;;;;;;;5.40;3.57;;;15.80;99.90;;;;;;4969753;28;20926;-73
2022/06/08 01:16:11;;;;;;;3.70;3.20;;;15.80;99.90;;;;;;4961837;28;20431;-72
2022/06/08 01:18:38;;;;;;;4.00;3.23;;;15.80;99.90;;;;;;4969084;28;20419;-73
2022/06/08 01:21:21;;;;;;;6.10;3.70;;;15.80;99.90;;;;;;4968877;28;20419;-72
2022/06/08 01:24:09;;;;;;;3.77;3.30;;;15.80;99.90;;;;;;4969133;28;20494;-73
2022/06/08 01:26:48;;;;;;;5.60;3.90;;;15.80;99.90;;;;;;4964572;28;20463;-73
2022/06/08 01:29:18;;;;;;;4.40;3.53;;;15.80;99.90;;;;;;4969125;28;20414;-73
2022/06/08 01:32:09;;;;;;;3.53;3.20;;;15.90;99.90;;;;;;4967685;28;20415;-73
2022/06/08 01:34:50;;;;;;;4.80;3.80;;;15.90;99.90;;;;;;4967505;28;20737;-72
2022/06/08 01:37:25;;;;;;;4.27;3.80;;;15.90;99.90;;;;;;4969267;28;20426;-73
2022/06/08 01:40:22;;;;;;;4.07;3.67;;;15.90;99.90;;;;;;4969521;28;20418;-73
2022/06/08 01:43:19;;;;;;;6.27;3.87;;;15.90;99.90;;;;;;4951699;28;20423;-73
2022/06/08 01:46:19;;;;;;;4.20;3.80;;;16.00;99.90;;;;;;4962534;28;20930;-73
2022/06/08 01:49:05;;;;;;;6.17;3.73;;;16.10;99.90;;;;;;4967081;28;20470;-73
2022/06/08 01:51:52;;;;;;;4.30;3.50;;;16.10;99.90;;;;;;4968398;28;20416;-73
2022/06/08 01:54:41;;;;;;;4.37;3.50;;;16.20;99.90;;;;;;4972546;28;20402;-73
2022/06/08 01:57:46;;;;;;;4.87;3.60;;;16.20;99.90;;;;;;4973255;28;20437;-73
2022/06/08 02:00:20;;;;;;;7.50;3.50;;;16.10;99.90;;;;;;4973534;28;20406;-73
2022/06/08 02:03:06;;;;;;;4.13;3.40;;;16.20;99.90;;;;;;4972222;28;20407;-72
2022/06/08 02:05:45;;;;;;;6.10;3.57;;;16.20;99.90;;;;;;4972209;28;20991;-71
2022/06/08 02:08:25;;;;;;;7.50;3.80;;;16.30;99.90;;;;;;4972442;28;21023;-73
2022/06/08 02:11:12;;;;;;;6.13;3.87;;;16.30;99.90;;;;;;4971896;28;20873;-73
2022/06/08 02:13:47;;;;;;;5.03;3.97;;;16.40;99.90;;;;;;4972998;28;20402;-72
2022/06/08 02:16:37;;;;;;;5.90;3.90;;;16.30;99.90;;;;;;4965146;28;20442;-72
2022/06/08 02:19:11;;;;;;;4.80;4.20;;;16.30;99.90;;;;;;4970806;28;20426;-73
2022/06/08 02:21:47;;;;;;;7.63;4.03;;;16.30;99.90;;;;;;4972317;28;20433;-73
2022/06/08 02:24:20;;;;;;;5.23;4.40;;;16.30;99.90;;;;;;4971202;28;20407;-72
2022/06/08 02:26:59;;;;;;;7.20;4.47;;;16.30;99.90;;;;;;4972834;28;20454;-73
2022/06/08 02:29:36;;;;;;;6.73;4.23;;;16.40;99.90;;;;;;4971675;28;20410;-73
2022/06/08 02:34:27;;;;;;;6.13;4.13;;;16.40;99.90;;;;;;4970984;28;20451;-72
2022/06/08 02:34:58;;;;;;;4.57;4.17;;;16.40;99.90;;;;;;4972142;28;20961;-73
2022/06/08 02:37:28;;;;;;;6.07;4.50;;;16.50;99.90;;;;;;4972301;28;20450;-72
2022/06/08 02:40:11;;;;;;;6.67;4.53;;;16.60;99.90;;;;;;4971170;28;21022;-72
2022/06/08 02:42:44;;;;;;;5.20;4.70;;;16.60;99.90;;;;;;4971883;28;20439;-72
2022/06/08 02:45:14;;;;;;;5.83;4.67;;;16.50;99.90;;;;;;4968049;28;20872;-73
2022/06/08 02:47:43;;;;;;;6.73;4.60;;;16.50;99.90;;;;;;4969161;28;20476;-73
2022/06/08 02:50:14;;;;;;;6.43;4.60;;;16.50;99.90;;;;;;4972369;28;20399;-73
2022/06/08 02:52:44;;;;;;;7.83;4.80;;;16.50;99.90;;;;;;4971342;28;20429;-73
2022/06/08 02:55:17;;;;;;;4.70;4.00;;;16.40;99.90;;;;;;4971655;28;20803;-73
2022/06/08 02:57:53;;;;;;;6.63;4.73;;;16.40;99.90;;;;;;4991654;28;20492;-73
2022/06/08 03:00:26;;;;;;;7.50;4.70;;;16.40;99.90;;;;;;4990439;28;21023;-73
2022/06/08 03:02:52;;;;;;;7.60;4.53;;;16.40;99.90;;;;;;4988005;28;20433;-72
2022/06/08 03:05:33;;;;;;;6.40;4.20;;;16.30;99.90;;;;;;4991356;28;20820;-73
2022/06/08 03:08:03;;;;;;;10.40;4.47;;;16.30;99.90;;;;;;5006067;28;20230;-73
2022/06/08 03:10:34;;;;;;;8.30;5.00;;;16.20;99.90;;;;;;4991826;28;20398;-74
2022/06/08 03:13:08;;;;;;;5.57;4.33;;;16.10;99.90;;;;;;4990892;28;20464;-73
2022/06/08 03:15:36;;;;;;;5.73;4.27;;;16.10;99.90;;;;;;4964408;28;20436;-73
2022/06/08 03:18:02;;;;;;;5.10;3.93;;;16.10;99.90;;;;;;4971051;28;20426;-73
2022/06/08 03:20:28;;;;;;;10.57;4.73;;;16.10;99.90;;;;;;4970462;28;20926;-73
2022/06/08 03:22:54;;;;;;;6.07;3.87;;;16.10;99.90;;;;;;4971314;28;20827;-73
2022/06/08 03:25:21;;;;;;;4.23;3.80;;;16.10;99.90;;;;;;4972010;28;20446;-73
2022/06/08 03:27:48;;;;;;;5.10;3.93;;;16.10;99.90;;;;;;4967519;28;20204;-72
2022/06/08 03:30:14;;;;;;;5.60;3.97;;;16.00;99.90;;;;;;4991568;28;20406;-73
2022/06/08 03:32:40;;;;;;;12.00;3.80;;;16.10;99.90;;;;;;5004947;28;20445;-73
2022/06/08 03:35:07;;;;;;;15.93;4.50;;;16.00;99.90;;;;;;4989507;28;20501;-73
2022/06/08 03:37:33;;;;;;;4.70;4.17;;;16.00;99.90;;;;;;4990675;28;20533;-73
2022/06/08 03:39:58;;;;;;;4.10;3.70;;;16.00;99.90;;;;;;4991107;28;20473;-73
2022/06/08 03:42:24;;;;;;;5.23;4.10;;;16.00;99.90;;;;;;4990396;28;20214;-72
2022/06/08 03:44:50;;;;;;;5.60;3.67;;;17.40;99.90;;;;;;4975810;28;20208;-73
2022/06/08 03:47:27;;;;;;;4.53;3.57;;;16.00;99.90;;;;;;4967409;28;20199;-73
2022/06/08 03:49:57;;;;;;;6.40;4.00;;;16.10;99.90;;;;;;4970986;28;20677;-72
2022/06/08 03:52:28;;;;;;;5.97;3.93;;;16.10;99.90;;;;;;4970746;28;20415;-72
2022/06/08 03:54:58;;;;;;;8.23;4.20;;;16.10;99.90;;;;;;4971778;28;20771;-73
2022/06/08 03:57:24;;;;;;;6.30;4.60;;;16.00;99.90;;;;;;4971640;28;20481;-73
2022/06/08 03:59:51;;;;;;;7.83;4.27;;;16.00;99.90;;;;;;4971355;28;20804;-73
2022/06/08 04:02:17;;;;;;;7.20;3.70;;;16.00;99.90;;;;;;4968583;28;20435;-73
2022/06/08 04:04:43;;;;;;;5.80;3.70;;;16.10;99.90;;;;;;4970509;28;20435;-73
2022/06/08 04:07:10;;;;;;;5.77;3.80;;;16.10;99.90;;;;;;4969645;28;20459;-73
2022/06/08 04:09:36;;;;;;;5.70;3.57;;;16.10;99.90;;;;;;4971015;28;20437;-73
2022/06/08 04:12:01;;;;;;;8.70;3.87;;;16.20;99.90;;;;;;4970379;28;20426;-74
2022/06/08 04:14:27;;;;;;;6.63;3.63;;;16.30;99.90;;;;;;4969950;28;20506;-73
2022/06/08 04:16:53;;;;;;;5.90;3.87;;;16.40;99.90;;;;;;4962823;28;20227;-73
2022/06/08 04:19:19;;;;;;;9.73;3.90;;;16.50;99.90;;;;;;4969794;28;20770;-71
2022/06/08 04:21:46;;;;;;;5.93;4.00;;;16.50;99.90;;;;;;4970483;28;20415;-76
2022/06/08 04:24:14;;;;;;;5.40;3.63;;;16.50;99.90;;;;;;4970440;28;20168;-75
2022/06/08 04:26:40;;;;;;;6.00;3.53;;;16.60;99.90;;;;;;4970683;28;20566;-76
2022/06/08 04:29:07;;;;;;;6.60;3.70;;;16.60;99.90;;;;;;4970650;28;20494;-76
2022/06/08 04:31:34;;;;;;;8.20;3.77;;;16.60;99.90;;;;;;4970387;28;20160;-75
2022/06/08 04:34:02;;;;;;;5.20;3.57;;;16.60;99.90;;;;;;4969868;28;20569;-75
2022/06/08 04:36:28;;;;;;;3.73;3.33;;;16.60;99.90;;;;;;4970308;28;20501;-75
2022/06/08 04:38:53;;;;;;;5.73;3.90;;;16.60;99.90;;;;;;4970413;28;20490;-75
2022/06/08 04:41:19;;;;;;;5.00;4.27;;;16.50;99.90;;;;;;4969627;28;20167;-75
2022/06/08 04:43:45;;;;;;;6.90;3.97;;;16.50;99.90;;;;;;4970314;28;20266;-75
2022/06/08 04:46:15;;;;;;;6.90;4.00;;;16.50;99.90;;;;;;4960942;28;20571;-76
2022/06/08 04:48:43;;;;;;;5.20;3.80;;;16.40;99.90;;;;;;4969545;28;20293;-74
2022/06/08 04:51:10;;;;;;;7.80;4.17;;;16.40;99.90;;;;;;4969658;28;20403;-76
2022/06/08 04:53:39;;;;;;;8.00;3.80;;;16.40;99.90;;;;;;4964637;28;20545;-75
2022/06/08 04:56:06;;;;;;;7.13;3.60;;;16.40;99.90;;;;;;4969887;28;20435;-76
2022/06/08 04:58:32;;;;;;;9.57;3.60;;;16.40;99.90;;;;;;4970397;28;20426;-76
2022/06/08 05:00:58;;;;;;;5.70;3.90;;;16.40;99.90;;;;;;4969861;28;20435;-76
2022/06/08 05:03:24;;;;;;;8.43;4.20;;;16.40;99.90;;;;;;4967729;28;21052;-75
2022/06/08 05:05:50;;;;;;;5.50;3.80;;;16.30;99.90;;;;;;4970282;28;20227;-74
2022/06/08 05:08:17;;;;;;;9.50;3.50;;;16.30;99.90;;;;;;4969799;28;20944;-76
2022/06/08 05:10:43;;;;;;;10.13;3.87;;;16.30;99.90;;;;;;4970286;28;20176;-76
2022/06/08 05:13:10;;;;;;;6.20;3.87;;;16.40;99.90;;;;;;4969806;28;20761;-75
2022/06/08 05:15:39;;;;;;;5.83;3.63;;;16.50;99.90;;;;;;4961992;28;20535;-75
2022/06/08 05:18:05;;;;;;;7.80;3.97;;;16.50;99.90;;;;;;4969458;28;20443;-75
2022/06/08 05:20:34;;;;;;;10.17;3.60;;;16.50;99.90;;;;;;4968438;28;20430;-75
2022/06/08 05:23:00;;;;;;;5.87;3.33;;;16.70;99.90;;;;;;4968813;28;20423;-74
2022/06/08 05:25:39;;;;;;;4.83;3.13;;;16.60;99.90;;;;;;4970159;28;20423;-75
2022/06/08 05:28:06;;;;;;;4.33;3.70;;;16.60;99.90;;;;;;4967977;28;20463;-76
2022/06/08 05:30:32;;;;;;;5.03;3.40;;;16.60;99.90;;;;;;4970150;28;20475;-75
2022/06/08 05:32:58;;;;;;;7.70;3.27;;;16.70;99.90;;;;;;4968524;28;20419;-76
2022/06/08 05:35:24;;;;;;;6.53;3.50;;;16.90;99.90;;;;;;4968219;28;20450;-75
2022/06/08 05:37:51;;;;;;;8.60;3.37;;;16.90;99.90;;;;;;4969406;28;20419;-75
2022/06/08 05:40:17;;;;;;;6.83;3.50;;;17.00;99.90;;;;;;4969888;28;20740;-76
2022/06/08 05:42:42;;;;;;;7.63;3.40;;;17.00;99.90;;;;;;4970077;28;20423;-75
2022/06/08 05:45:14;;;;;;;5.33;3.17;;;17.00;99.90;;;;;;4965398;28;20914;-75
2022/06/08 05:47:39;;;;;;;6.53;3.23;;;17.10;99.90;;;;;;4966559;28;20689;-75
2022/06/08 05:50:05;;;;;;;13.83;3.70;;;17.10;99.90;;;;;;4969275;28;20412;-76
2022/06/08 05:52:31;;;;;;;4.67;3.17;;;17.10;99.90;;;;;;4968710;28;20184;-75
2022/06/08 05:54:57;;;;;;;5.27;3.30;;;17.20;99.90;;;;;;4969912;28;20168;-76
2022/06/08 05:57:22;;;;;;;9.67;3.37;;;17.30;99.90;;;;;;4969557;28;20953;-74
2022/06/08 05:59:49;;;;;;;5.90;3.27;;;17.40;99.90;;;;;;4969785;28;20216;-75
2022/06/08 06:02:15;;;;;;;4.50;3.10;;;17.50;99.90;;;;;;4968060;28;20333;-76
2022/06/08 06:04:42;;;;;;;5.50;2.90;;;17.50;99.90;;;;;;4968853;28;20522;-75
2022/06/08 06:07:08;;;;;;;7.67;3.20;;;17.60;99.90;;;;;;4968640;28;20578;-75
2022/06/08 06:09:34;;;;;;;6.60;3.87;;;17.70;99.90;;;;;;4969689;28;20890;-74
2022/06/08 06:12:00;;;;;;;7.93;3.40;;;17.80;99.90;;;;;;4968892;28;20407;-75
2022/06/08 06:14:26;;;;;;;6.70;3.57;;;17.80;99.90;;;;;;4969497;28;20890;-76
2022/06/08 06:16:51;;;;;;;6.57;3.50;;;17.90;97.50;;;;;;4960415;28;20543;-75
2022/06/08 06:19:17;;;;;;;5.70;3.30;;;18.00;99.90;;;;;;4968101;28;20184;-75
2022/06/08 06:21:42;;;;;;;7.93;3.50;;;18.10;94.90;;;;;;4967530;28;20176;-76
2022/06/08 06:24:08;;;;;;;5.87;3.27;;;18.20;92.70;;;;;;4967991;28;20664;-75
2022/06/08 06:26:33;;;;;;;5.67;3.80;;;18.20;91.70;;;;;;4969262;28;20282;-75
2022/06/08 06:28:59;;;;;;;5.80;3.13;;;18.20;91.20;;;;;;4969438;28;20469;-76
2022/06/08 06:31:39;;;;;;;9.20;4.00;;;18.30;90.10;;;;;;4968930;28;20176;-76
2022/06/08 06:34:05;;;;;;;6.50;3.10;;;18.40;91.30;;;;;;4968579;28;20274;-76
2022/06/08 06:36:31;;;;;;;8.90;3.13;;;18.50;85.90;;;;;;4969161;28;21025;-73
2022/06/08 06:38:56;;;;;;;5.87;2.97;;;18.60;82.10;;;;;;4970808;28;20623;-76
2022/06/08 06:41:22;;;;;;;4.57;3.10;;;18.70;80.50;;;;;;4972590;28;20698;-75
2022/06/08 06:43:48;;;;;;;10.17;3.23;;;18.70;75.90;;;;;;4972831;28;20214;-76
2022/06/08 06:46:15;;;;;;;6.10;2.93;;;18.80;74.20;;;;;;4964771;28;20702;-76
2022/06/08 06:48:41;;;;;;;9.10;3.37;;;19.10;68.50;;;;;;4972081;28;20454;-76
2022/06/08 06:51:07;;;;;;;4.67;2.50;;;19.40;63.70;;;;;;4971877;28;20925;-75
2022/06/08 06:53:33;;;;;;;6.27;2.90;;;19.80;55.70;;;;;;4965734;28;20211;-76
2022/06/08 06:55:59;;;;;;;9.00;2.97;;;20.00;46.60;;;;;;4972314;28;20427;-76
2022/06/08 06:58:25;;;;;;;8.00;2.50;;;20.20;49.20;;;;;;4972599;28;20497;-75
2022/06/08 07:00:50;;;;;;;3.70;2.40;;;20.20;46.70;;;;;;4972790;28;20263;-76
2022/06/08 07:03:16;;;;;;;6.03;2.77;;;20.20;46.40;;;;;;4969620;28;20451;-74
2022/06/08 07:05:42;;;;;;;5.90;3.10;;;20.10;46.50;;;;;;4972269;28;20621;-75
2022/06/08 07:08:08;;;;;;;6.63;3.17;;;20.20;46.60;;;;;;4972257;28;20203;-76
2022/06/08 07:10:36;;;;;;;3.73;2.70;;;20.20;46.50;;;;;;4973221;28;20171;-76
2022/06/08 07:13:02;;;;;;;7.87;2.77;;;20.20;46.60;;;;;;4970538;28;20423;-76
2022/06/08 07:15:28;;;;;;;4.60;2.70;;;20.30;46.00;;;;;;4965684;28;20428;-76
2022/06/08 07:17:54;;;;;;;7.10;2.63;;;20.50;40.30;;;;;;4970618;28;20168;-76
2022/06/08 07:20:20;;;;;;;10.93;2.97;;;20.80;47.00;;;;;;4972332;28;20525;-76
2022/06/08 07:22:47;;;;;;;4.63;2.87;;;21.00;37.20;;;;;;4971222;28;20954;-74
2022/06/08 07:25:13;;;;;;;5.60;2.40;;;21.30;31.60;;;;;;4972326;28;20199;-75
2022/06/08 07:27:40;;;;;;;8.07;2.57;;;21.40;24.00;;;;;;4966019;28;20689;-78
2022/06/08 07:30:07;;;;;;;4.67;2.47;;;21.30;21.30;;;;;;4972084;28;20411;-76
2022/06/08 07:32:33;;;;;;;5.17;2.40;;;21.40;22.90;;;;;;4970955;28;20429;-77
2022/06/08 07:34:59;;;;;;;5.23;2.60;;;21.50;21.40;;;;;;4974207;28;20425;-77
2022/06/08 07:37:26;;;;;;;4.57;2.50;;;21.70;16.30;;;;;;4971808;28;20434;-76
2022/06/08 07:39:52;;;;;;;4.27;2.50;;;21.90;18.10;;;;;;4970887;28;20176;-74
2022/06/08 07:42:17;;;;;;;7.57;2.50;;;22.30;17.70;;;;;;4971061;28;20419;-74
2022/06/08 07:44:44;;;;;;;6.13;2.83;;;23.30;9.70;;;;;;4970557;28;20713;-74
2022/06/08 07:47:10;;;;;;;5.53;2.80;;;23.30;8.80;;;;;;4964674;28;20217;-73
2022/06/08 07:49:39;;;;;;;4.77;2.60;;;23.70;4.20;;;;;;4971007;28;20497;-73
2022/06/08 07:52:11;;;;;;;5.57;2.90;;;23.70;5.30;;;;;;4970884;28;20227;-73
2022/06/08 07:54:37;;;;;;;7.10;2.47;;;24.20;9.00;;;;;;4971952;28;20410;-74
2022/06/08 07:57:05;;;;;;;8.90;2.80;;;24.80;5.30;;;;;;4970819;28;20574;-74
2022/06/08 07:59:33;;;;;;;5.87;2.40;;;24.90;2.90;;;;;;4971627;28;20418;-74
2022/06/08 08:01:59;;;;;;;7.50;3.00;;;25.10;3.00;;;;;;4969714;28;20991;-77
2022/06/08 08:04:25;;;;;;;5.53;2.73;;;25.20;1.00;;;;;;4970288;28;20530;-77
2022/06/08 08:06:51;;;;;;;6.93;2.50;;;25.30;1.00;;;;;;4969260;28;20542;-74
2022/06/08 08:09:22;;;;;;;5.30;2.53;;;25.20;1.00;;;;;;4971038;28;20177;-77
2022/06/08 08:11:50;;;;;;;4.67;2.30;;;24.90;1.00;;;;;;4969468;28;20681;-76
2022/06/08 08:14:18;;;;;;;12.13;2.93;;;24.50;1.00;;;;;;4971627;28;20418;-76
2022/06/08 08:16:44;;;;;;;5.93;2.57;;;24.60;1.00;;;;;;4966806;28;20430;-76
2022/06/08 08:19:12;;;;;;;18.73;2.60;;;25.00;1.00;;;;;;4970790;28;20779;-76
2022/06/08 08:21:37;;;;;;;8.30;2.83;;;25.20;1.00;;;;;;4970698;28;20176;-76
2022/06/08 08:24:04;;;;;;;3.53;2.33;;;25.20;1.00;;;;;;4969715;28;20403;-75
2022/06/08 08:26:32;;;;;;;5.63;2.47;;;24.90;1.00;;;;;;4969067;28;20191;-76
2022/06/08 08:28:57;;;;;;;4.53;2.30;;;24.50;1.00;;;;;;4971052;28;20421;-76
2022/06/08 08:31:24;;;;;;;5.30;2.50;;;24.40;1.00;;;;;;4968883;28;20406;-77
2022/06/08 08:33:49;;;;;;;11.77;2.67;;;24.30;1.00;;;;;;4968915;28;20219;-75
2022/06/08 08:36:16;;;;;;;5.67;2.60;;;24.70;1.00;;;;;;4969154;28;20470;-76
2022/06/08 08:38:42;;;;;;;4.30;2.10;;;24.70;1.00;;;;;;4970622;28;20174;-77
2022/06/08 08:42:20;;;;;;;6.33;2.30;;;24.80;1.00;;;;;;4970207;28;20415;-76
2022/06/08 08:43:59;;;;;;;4.97;2.10;;;25.00;1.00;;;;;;4970537;28;20550;-75
2022/06/08 08:46:53;;;;;;;3.93;2.20;;;25.00;1.00;;;;;;4962959;28;20427;-76
2022/06/08 08:49:20;;;;;;;5.53;2.23;;;25.30;1.00;;;;;;4969952;28;20419;-76
2022/06/08 08:51:59;;;;;;;6.77;2.50;;;25.50;1.00;;;;;;4970307;28;20416;-77
2022/06/08 08:54:38;;;;;;;7.33;2.47;;;25.70;1.00;;;;;;4965085;28;20465;-76
2022/06/08 08:57:19;;;;;;;5.33;2.50;;;26.10;1.00;;;;;;4970334;28;20738;-75
2022/06/08 08:59:49;;;;;;;5.57;2.20;;;26.60;1.00;;;;;;4971299;28;20399;-77
2022/06/08 09:03:14;;;;;;;4.27;2.03;;;27.20;1.00;;;;;;4968916;28;20411;-77
2022/06/08 09:05:15;;;;;;;5.53;2.07;;;27.80;1.00;;;;;;4970189;28;20442;-75
2022/06/08 09:07:42;;;;;;;7.40;2.30;;;28.40;1.00;;;;;;4970100;28;20465;-77
2022/06/08 09:10:22;;;;;;;4.90;2.13;;;28.90;1.00;;;;;;4970706;28;20439;-77
2022/06/08 09:12:48;;;;;;;4.27;2.00;;;28.20;1.00;;;;;;4969562;28;20469;-77
2022/06/08 09:15:17;;;;;;;6.13;2.30;;;28.20;1.00;;;;;;4965141;28;20439;-74
2022/06/08 09:17:56;;;;;;;3.47;2.03;;;27.90;1.00;;;;;;4967296;28;20493;-75
2022/06/08 09:20:31;;;;;;;4.43;1.80;;;29.10;1.00;;;;;;4970163;28;20421;-75
2022/06/08 09:22:58;;;;;;;3.90;2.03;;;29.50;1.00;;;;;;4969342;28;20171;-77
2022/06/08 09:25:30;;;;;;;3.13;1.73;;;28.60;1.00;;;;;;4968809;28;20309;-76
2022/06/08 09:27:58;;;;;;;5.07;1.90;;;28.00;1.00;;;;;;4969572;28;20203;-77
2022/06/08 09:30:30;;;;;;;4.07;2.00;;;27.90;1.00;;;;;;4970378;28;20179;-76
2022/06/08 09:33:17;;;;;;;5.30;2.00;;;28.10;1.00;;;;;;4968784;28;20259;-77
2022/06/08 09:35:58;;;;;;;4.87;2.17;;;28.30;1.00;;;;;;4970726;28;20182;-77
2022/06/08 09:38:26;;;;;;;4.67;2.20;;;29.00;1.00;;;;;;4968181;28;20175;-76
2022/06/08 09:40:58;;;;;;;7.27;2.00;;;28.70;1.00;;;;;;4969683;28;20167;-77
2022/06/08 09:43:33;;;;;;;5.10;2.10;;;28.00;1.00;;;;;;4968210;28;20225;-76
2022/06/08 09:46:10;;;;;;;3.50;1.67;;;27.60;1.00;;;;;;4961861;28;20253;-76
2022/06/08 09:52:05;;;;;;;4.70;1.80;;;28.20;1.00;;;;;;4969696;28;20174;-77
2022/06/08 09:54:30;;;;;;;5.00;1.60;;;27.60;1.00;;;;;;4969143;28;20661;-76
2022/06/08 09:57:35;;;;;;;5.47;1.93;;;29.50;1.00;;;;;;4968699;28;20211;-76
2022/06/08 10:00:18;;;;;;;5.80;1.80;;;31.40;1.00;;;;;;4968693;28;20525;-76
2022/06/08 10:02:55;;;;;;;6.07;1.80;;;30.10;1.00;;;;;;4968545;28;20183;-77
2022/06/08 10:05:43;;;;;;;3.38;1.80;;;31.50;1.00;;;;;;4969706;28;20193;-76
2022/06/08 10:08:19;;;;;;;3.65;1.60;;;33.00;1.00;;;;;;4962618;28;20195;-76
2022/06/08 10:11:34;;;;;;;5.60;1.65;;;32.90;1.00;;;;;;4968727;28;20167;-76
2022/06/08 10:14:08;;;;;;;4.22;1.60;;;32.20;1.00;;;;;;4970526;28;20171;-76
2022/06/08 10:16:38;;;;;;;4.05;1.80;;;33.10;1.00;;;;;;4965782;28;20214;-76
2022/06/08 10:19:09;;;;;;;3.88;1.67;;;32.70;1.00;;;;;;4972853;28;20172;-76
2022/06/08 10:21:41;;;;;;;4.78;1.63;;;32.40;1.00;;;;;;4972720;28;20168;-75
2022/06/08 10:24:19;;;;;;;4.78;1.88;;;31.20;1.00;;;;;;4973382;28;20221;-76
2022/06/08 10:26:51;;;;;;;4.57;2.15;;;29.70;1.00;;;;;;4973284;28;20570;-76
2022/06/08 10:29:43;;;;;;;3.53;1.70;;;28.80;1.00;;;;;;4972155;28;20178;-76
2022/06/08 10:32:24;;;;;;;5.20;1.80;;;27.90;1.00;;;;;;4970994;28;20195;-76
2022/06/08 10:34:56;;;;;;;3.40;1.77;;;27.70;1.00;;;;;;4972862;28;20712;-76
2022/06/08 10:37:35;;;;;;;5.30;1.87;;;27.90;1.00;;;;;;4971700;28;20283;-76
2022/06/08 10:40:05;;;;;;;4.00;2.03;;;29.90;1.00;;;;;;4973626;28;20723;-77
2022/06/08 10:42:39;;;;;;;9.40;2.28;;;32.30;1.00;;;;;;4972281;28;20186;-77
2022/06/08 10:45:23;;;;;;;4.13;2.00;;;31.90;1.00;;;;;;4969237;28;20191;-75
2022/06/08 10:48:03;;;;;;;4.65;2.00;;;31.30;1.00;;;;;;4970783;28;20191;-76
2022/06/08 10:50:35;;;;;;;4.20;2.03;;;29.70;1.00;;;;;;4971458;28;20203;-76
2022/06/08 10:56:23;;;;;;;5.43;2.00;;;27.80;1.00;;;;;;4972851;28;20281;-75
2022/06/08 10:59:03;;;;;;;4.30;1.83;;;27.50;1.00;;;;;;4972856;28;20178;-76
2022/06/08 11:02:07;;;;;;;6.50;2.17;;;28.10;1.00;;;;;;4970913;28;20190;-76
2022/06/08 11:04:32;;;;;;;5.90;1.90;;;30.50;1.00;;;;;;4972040;28;20196;-76
2022/06/08 11:07:07;;;;;;;3.97;1.80;;;30.70;1.00;;;;;;4971520;28;20207;-76
2022/06/08 11:09:32;;;;;;;7.93;2.00;;;30.20;1.00;;;;;;4973063;28;20190;-76
2022/06/08 11:12:27;;;;;;;5.80;2.10;;;30.00;1.00;;;;;;4972137;28;20626;-76
2022/06/08 11:14:57;;;;;;;3.10;1.87;;;29.20;1.00;;;;;;4949936;28;20278;-75
2022/06/08 11:17:28;;;;;;;3.47;1.70;;;30.50;1.00;;;;;;4967059;28;20558;-76
2022/06/08 11:20:03;;;;;;;3.58;1.90;;;32.40;1.00;;;;;;4972403;28;20163;-77
2022/06/08 11:22:36;;;;;;;5.28;1.80;;;34.20;1.00;;;;;;4971544;28;20170;-77
2022/06/08 11:25:06;;;;;;;3.90;1.77;;;35.50;1.00;;;;;;4972156;28;20190;-77
2022/06/08 11:27:34;;;;;;;3.85;1.80;;;34.80;1.00;;;;;;4966329;28;20207;-77
2022/06/08 11:30:06;;;;;;;3.85;2.00;;;33.50;1.00;;;;;;4972313;28;20191;-77
2022/06/08 11:32:32;;;;;;;3.78;1.77;;;31.40;1.00;;;;;;4973296;28;20669;-76
2022/06/08 11:35:03;;;;;;;3.63;1.73;;;31.00;1.00;;;;;;4972163;28;20211;-77
2022/06/08 11:37:44;;;;;;;4.97;1.83;;;32.20;1.00;;;;;;4970665;28;20218;-77
2022/06/08 11:40:33;;;;;;;4.78;2.00;;;32.20;1.00;;;;;;4972576;28;20164;-76
2022/06/08 11:43:14;;;;;;;5.70;2.17;;;31.50;1.00;;;;;;4970845;28;20604;-76
2022/06/08 11:45:44;;;;;;;5.60;1.90;;;31.40;1.00;;;;;;4961552;28;20812;-76
2022/06/08 11:48:19;;;;;;;8.18;2.10;;;31.90;1.00;;;;;;4971250;28;20202;-77
2022/06/08 11:50:49;;;;;;;5.10;2.00;;;31.30;1.00;;;;;;4971890;28;20311;-76
2022/06/08 11:53:24;;;;;;;4.47;1.70;;;30.50;1.00;;;;;;4970495;28;20168;-77
2022/06/08 11:56:06;;;;;;;5.30;2.30;;;30.40;1.00;;;;;;4972233;28;20365;-77
2022/06/08 11:58:34;;;;;;;3.70;1.88;;;32.20;1.00;;;;;;4971635;28;20197;-77
2022/06/08 12:01:08;;;;;;;4.85;1.83;;;33.20;1.00;;;;;;4971584;28;20572;-77
2022/06/08 12:03:42;;;;;;;7.53;1.73;;;33.00;1.00;;;;;;4970385;28;20182;-76
2022/06/08 12:06:18;;;;;;;4.55;2.08;;;32.10;1.00;;;;;;4971332;28;21306;-77
2022/06/08 12:08:49;;;;;;;4.93;1.83;;;31.60;1.00;;;;;;4971053;28;20270;-76
2022/06/08 12:11:17;;;;;;;5.55;2.10;;;31.30;1.00;;;;;;4971026;28;20164;-77
2022/06/08 12:14:01;;;;;;;3.83;1.80;;;31.40;1.00;;;;;;4969790;28;20186;-77
2022/06/08 12:16:36;;;;;;;4.22;1.70;;;31.00;1.00;;;;;;4961790;28;20230;-77
2022/06/08 12:19:02;;;;;;;4.40;1.70;;;30.60;1.00;;;;;;4970704;28;20652;-76
2022/06/08 12:21:34;;;;;;;4.60;2.13;;;30.00;1.00;;;;;;4969094;28;20176;-77
2022/06/08 12:24:05;;;;;;;5.55;1.80;;;30.00;1.00;;;;;;4970902;28;20657;-77
2022/06/08 12:26:42;;;;;;;5.30;1.87;;;29.90;1.00;;;;;;4971721;28;20199;-77
2022/06/08 12:29:13;;;;;;;5.13;2.03;;;29.70;1.00;;;;;;4971900;28;20167;-76
2022/06/08 12:31:39;;;;;;;4.40;1.90;;;29.10;1.00;;;;;;4969657;28;20514;-76
2022/06/08 12:34:34;;;;;;;3.77;1.90;;;28.60;1.00;;;;;;4970383;28;20170;-76
2022/06/08 12:37:33;;;;;;;5.60;1.70;;;28.20;1.00;;;;;;4970071;28;20737;-77
2022/06/08 12:40:20;;;;;;;5.57;1.90;;;28.10;1.00;;;;;;4971134;28;20175;-75
2022/06/08 12:42:50;;;;;;;4.50;1.90;;;28.00;1.00;;;;;;4969785;28;20305;-76
2022/06/08 12:45:33;;;;;;;4.33;1.67;;;27.80;1.00;;;;;;4965238;28;20628;-76
2022/06/08 12:48:00;;;;;;;4.30;2.13;;;27.50;1.00;;;;;;4968041;28;20558;-76
2022/06/08 12:50:29;;;;;;;7.20;2.00;;;27.30;1.00;;;;;;4969030;28;20174;-76
2022/06/08 12:52:55;;;;;;;7.43;2.27;;;26.90;1.00;;;;;;4968115;28;20649;-76
2022/06/08 12:55:25;;;;;;;3.50;1.87;;;26.50;1.00;;;;;;4965339;28;20180;-76
2022/06/08 12:57:51;;;;;;;4.83;2.00;;;26.40;1.00;;;;;;4970032;28;20178;-76
2022/06/08 13:00:24;;;;;;;4.57;1.77;;;26.50;1.00;;;;;;4969373;28;20427;-76
2022/06/08 13:02:50;;;;;;;5.60;1.97;;;26.40;1.00;;;;;;4969039;28;20163;-75
2022/06/08 13:05:26;;;;;;;4.90;1.90;;;26.50;1.00;;;;;;4970342;28;20925;-74
2022/06/08 13:07:55;;;;;;;5.23;2.00;;;26.60;1.00;;;;;;4968293;28;20745;-77
2022/06/08 13:10:26;;;;;;;6.50;2.00;;;26.60;1.00;;;;;;4970483;28;20411;-76
2022/06/08 13:12:55;;;;;;;4.13;1.90;;;26.50;1.00;;;;;;4969563;28;20473;-76
2022/06/08 13:15:26;;;;;;;5.00;2.20;;;26.40;1.00;;;;;;4963998;28;20428;-76
2022/06/08 13:17:53;;;;;;;6.63;2.00;;;26.30;1.00;;;;;;4968574;28;20406;-75
2022/06/08 13:20:22;;;;;;;8.47;2.03;;;26.00;1.00;;;;;;4970144;28;20422;-76